Terminal Aerodrome Forecast
Issued by NWS Kansas City/Pleasant Hill, MO

Home | Current Version | Previous Version | Text Only | Print | Product List | Glossary On
Versions: 1 2 3 4 5 6 7 8 9 10 11 12 13 14 15
486
FTUS43 KEAX 260520
TAFMCI
TAF
KMCI 260520Z 2606/2706 17008KT P6SM SCT250
     FM261200 21007KT P6SM OVC090
     FM261900 22010KT P6SM BKN200=

USA.gov is the U.S. government's official web portal to all federal, state and local government web resources and services.